sensor_id;sensor_type;location;lat;lon;timestamp;P1;durP1;ratioP1;P2;durP2;ratioP2
4011;SDS011;2020;48.682;9.024;2022-12-04T00:01:03;30.83;;;17.10;;
4011;SDS011;2020;48.682;9.024;2022-12-04T00:03:30;37.07;;;16.20;;
4011;SDS011;2020;48.682;9.024;2022-12-04T00:06:09;28.03;;;17.13;;
4011;SDS011;2020;48.682;9.024;2022-12-04T00:08:36;34.20;;;17.00;;
4011;SDS011;2020;48.682;9.024;2022-12-04T00:11:03;32.03;;;16.50;;
4011;SDS011;2020;48.682;9.024;2022-12-04T00:13:29;28.30;;;16.20;;
4011;SDS011;2020;48.682;9.024;2022-12-04T00:15:55;36.53;;;18.60;;
4011;SDS011;2020;48.682;9.024;2022-12-04T00:18:20;30.93;;;17.90;;
4011;SDS011;2020;48.682;9.024;2022-12-04T00:20:45;28.17;;;16.20;;
4011;SDS011;2020;48.682;9.024;2022-12-04T00:23:11;40.60;;;20.17;;
4011;SDS011;2020;48.682;9.024;2022-12-04T00:25:36;30.03;;;17.03;;
4011;SDS011;2020;48.682;9.024;2022-12-04T00:28:01;31.97;;;17.00;;
4011;SDS011;2020;48.682;9.024;2022-12-04T00:30:27;27.63;;;17.47;;
4011;SDS011;2020;48.682;9.024;2022-12-04T00:32:52;36.00;;;17.20;;
4011;SDS011;2020;48.682;9.024;2022-12-04T00:35:17;40.37;;;19.33;;
4011;SDS011;2020;48.682;9.024;2022-12-04T00:37:42;34.83;;;18.80;;
4011;SDS011;2020;48.682;9.024;2022-12-04T00:40:08;37.67;;;21.07;;
4011;SDS011;2020;48.682;9.024;2022-12-04T00:42:33;33.23;;;18.03;;
4011;SDS011;2020;48.682;9.024;2022-12-04T00:44:58;33.20;;;18.87;;
4011;SDS011;2020;48.682;9.024;2022-12-04T00:47:24;33.20;;;18.07;;
4011;SDS011;2020;48.682;9.024;2022-12-04T00:49:49;37.37;;;19.80;;
4011;SDS011;2020;48.682;9.024;2022-12-04T00:52:15;33.57;;;18.80;;
4011;SDS011;2020;48.682;9.024;2022-12-04T00:54:41;39.63;;;22.60;;
4011;SDS011;2020;48.682;9.024;2022-12-04T00:57:07;35.27;;;19.43;;
4011;SDS011;2020;48.682;9.024;2022-12-04T00:59:32;40.53;;;19.97;;
4011;SDS011;2020;48.682;9.024;2022-12-04T01:01:57;39.10;;;20.03;;
4011;SDS011;2020;48.682;9.024;2022-12-04T01:04:22;33.60;;;20.03;;
4011;SDS011;2020;48.682;9.024;2022-12-04T01:06:48;35.90;;;18.90;;
4011;SDS011;2020;48.682;9.024;2022-12-04T01:09:13;39.77;;;20.40;;
4011;SDS011;2020;48.682;9.024;2022-12-04T01:11:38;28.70;;;18.13;;
4011;SDS011;2020;48.682;9.024;2022-12-04T01:14:04;40.40;;;19.60;;
4011;SDS011;2020;48.682;9.024;2022-12-04T01:16:31;39.90;;;19.57;;
4011;SDS011;2020;48.682;9.024;2022-12-04T01:19:02;39.43;;;19.60;;
4011;SDS011;2020;48.682;9.024;2022-12-04T01:21:28;33.37;;;18.03;;
4011;SDS011;2020;48.682;9.024;2022-12-04T01:23:53;45.60;;;22.00;;
4011;SDS011;2020;48.682;9.024;2022-12-04T01:26:19;35.67;;;20.50;;
4011;SDS011;2020;48.682;9.024;2022-12-04T01:28:44;38.13;;;19.33;;
4011;SDS011;2020;48.682;9.024;2022-12-04T01:31:14;36.57;;;19.77;;
4011;SDS011;2020;48.682;9.024;2022-12-04T01:33:42;34.80;;;18.80;;
4011;SDS011;2020;48.682;9.024;2022-12-04T01:36:09;36.13;;;19.70;;
4011;SDS011;2020;48.682;9.024;2022-12-04T01:38:37;33.63;;;19.87;;
4011;SDS011;2020;48.682;9.024;2022-12-04T01:41:03;32.90;;;19.10;;
4011;SDS011;2020;48.682;9.024;2022-12-04T01:43:31;35.30;;;19.57;;
4011;SDS011;2020;48.682;9.024;2022-12-04T01:45:58;35.43;;;18.80;;
4011;SDS011;2020;48.682;9.024;2022-12-04T01:48:44;37.60;;;19.50;;
4011;SDS011;2020;48.682;9.024;2022-12-04T01:53:41;28.37;;;18.63;;
4011;SDS011;2020;48.682;9.024;2022-12-04T01:56:11;27.40;;;17.30;;
4011;SDS011;2020;48.682;9.024;2022-12-04T01:58:39;36.83;;;19.00;;
4011;SDS011;2020;48.682;9.024;2022-12-04T02:01:10;37.33;;;18.23;;
4011;SDS011;2020;48.682;9.024;2022-12-04T02:03:36;34.50;;;18.67;;
4011;SDS011;2020;48.682;9.024;2022-12-04T02:06:02;34.07;;;20.00;;
4011;SDS011;2020;48.682;9.024;2022-12-04T02:08:27;37.20;;;18.90;;
4011;SDS011;2020;48.682;9.024;2022-12-04T02:13:48;26.23;;;16.33;;
4011;SDS011;2020;48.682;9.024;2022-12-04T02:17:24;29.70;;;17.63;;
4011;SDS011;2020;48.682;9.024;2022-12-04T02:22:58;30.60;;;18.50;;
4011;SDS011;2020;48.682;9.024;2022-12-04T02:25:43;28.20;;;17.43;;
4011;SDS011;2020;48.682;9.024;2022-12-04T02:28:21;29.60;;;16.93;;
4011;SDS011;2020;48.682;9.024;2022-12-04T02:30:54;31.77;;;19.67;;
4011;SDS011;2020;48.682;9.024;2022-12-04T02:33:23;33.90;;;18.43;;
4011;SDS011;2020;48.682;9.024;2022-12-04T02:38:31;36.30;;;19.33;;
4011;SDS011;2020;48.682;9.024;2022-12-04T02:41:08;31.70;;;19.10;;
4011;SDS011;2020;48.682;9.024;2022-12-04T02:43:39;36.43;;;20.17;;
4011;SDS011;2020;48.682;9.024;2022-12-04T02:46:19;39.63;;;20.77;;
4011;SDS011;2020;48.682;9.024;2022-12-04T02:48:50;32.70;;;18.70;;
4011;SDS011;2020;48.682;9.024;2022-12-04T02:51:20;38.50;;;19.87;;
4011;SDS011;2020;48.682;9.024;2022-12-04T02:53:50;30.53;;;16.63;;
4011;SDS011;2020;48.682;9.024;2022-12-04T02:56:31;27.67;;;16.10;;
4011;SDS011;2020;48.682;9.024;2022-12-04T02:59:01;31.80;;;18.23;;
4011;SDS011;2020;48.682;9.024;2022-12-04T03:01:37;32.77;;;17.60;;
4011;SDS011;2020;48.682;9.024;2022-12-04T03:04:18;31.90;;;17.23;;
4011;SDS011;2020;48.682;9.024;2022-12-04T03:06:54;37.53;;;20.23;;
4011;SDS011;2020;48.682;9.024;2022-12-04T03:09:26;31.40;;;18.60;;
4011;SDS011;2020;48.682;9.024;2022-12-04T03:11:56;34.93;;;18.23;;
4011;SDS011;2020;48.682;9.024;2022-12-04T03:14:26;31.40;;;17.20;;
4011;SDS011;2020;48.682;9.024;2022-12-04T03:16:57;35.53;;;18.43;;
4011;SDS011;2020;48.682;9.024;2022-12-04T03:19:33;31.57;;;18.20;;
4011;SDS011;2020;48.682;9.024;2022-12-04T03:22:10;30.07;;;16.13;;
4011;SDS011;2020;48.682;9.024;2022-12-04T03:24:40;28.37;;;16.03;;
4011;SDS011;2020;48.682;9.024;2022-12-04T03:27:17;42.07;;;19.67;;
4011;SDS011;2020;48.682;9.024;2022-12-04T03:32:25;32.13;;;16.60;;
4011;SDS011;2020;48.682;9.024;2022-12-04T03:35:00;32.80;;;16.87;;
4011;SDS011;2020;48.682;9.024;2022-12-04T03:40:22;27.60;;;15.43;;
4011;SDS011;2020;48.682;9.024;2022-12-04T03:42:57;29.47;;;17.87;;
4011;SDS011;2020;48.682;9.024;2022-12-04T03:47:56;33.57;;;16.97;;
4011;SDS011;2020;48.682;9.024;2022-12-04T03:55:51;27.20;;;15.13;;
4011;SDS011;2020;48.682;9.024;2022-12-04T03:58:24;27.43;;;15.40;;
4011;SDS011;2020;48.682;9.024;2022-12-04T04:00:53;28.03;;;16.90;;
4011;SDS011;2020;48.682;9.024;2022-12-04T04:03:25;28.40;;;15.07;;
4011;SDS011;2020;48.682;9.024;2022-12-04T04:05:55;28.90;;;15.30;;
4011;SDS011;2020;48.682;9.024;2022-12-04T04:08:27;23.23;;;13.57;;
4011;SDS011;2020;48.682;9.024;2022-12-04T04:11:04;31.47;;;14.70;;
4011;SDS011;2020;48.682;9.024;2022-12-04T04:13:38;27.13;;;14.63;;
4011;SDS011;2020;48.682;9.024;2022-12-04T04:16:30;26.70;;;14.57;;
4011;SDS011;2020;48.682;9.024;2022-12-04T04:19:17;23.80;;;13.37;;
4011;SDS011;2020;48.682;9.024;2022-12-04T04:22:03;24.97;;;14.07;;
4011;SDS011;2020;48.682;9.024;2022-12-04T04:24:54;25.70;;;12.93;;
4011;SDS011;2020;48.682;9.024;2022-12-04T04:27:27;25.60;;;13.47;;
4011;SDS011;2020;48.682;9.024;2022-12-04T04:29:52;27.80;;;15.00;;
4011;SDS011;2020;48.682;9.024;2022-12-04T04:32:22;22.60;;;13.20;;
4011;SDS011;2020;48.682;9.024;2022-12-04T04:43:09;22.67;;;12.90;;
4011;SDS011;2020;48.682;9.024;2022-12-04T04:45:47;20.33;;;12.63;;
4011;SDS011;2020;48.682;9.024;2022-12-04T04:48:19;18.43;;;12.20;;
4011;SDS011;2020;48.682;9.024;2022-12-04T04:50:49;27.70;;;14.27;;
4011;SDS011;2020;48.682;9.024;2022-12-04T04:53:16;22.73;;;13.10;;
4011;SDS011;2020;48.682;9.024;2022-12-04T04:55:45;24.97;;;13.53;;
4011;SDS011;2020;48.682;9.024;2022-12-04T04:58:12;22.97;;;13.20;;
4011;SDS011;2020;48.682;9.024;2022-12-04T05:00:40;27.90;;;12.93;;
4011;SDS011;2020;48.682;9.024;2022-12-04T05:03:14;25.90;;;12.37;;
4011;SDS011;2020;48.682;9.024;2022-12-04T05:05:39;25.40;;;13.20;;
4011;SDS011;2020;48.682;9.024;2022-12-04T05:08:05;18.60;;;11.53;;
4011;SDS011;2020;48.682;9.024;2022-12-04T05:10:30;18.27;;;11.27;;
4011;SDS011;2020;48.682;9.024;2022-12-04T05:12:55;20.53;;;11.30;;
4011;SDS011;2020;48.682;9.024;2022-12-04T05:15:21;22.10;;;12.60;;
4011;SDS011;2020;48.682;9.024;2022-12-04T05:17:46;15.93;;;10.67;;
4011;SDS011;2020;48.682;9.024;2022-12-04T05:20:11;21.53;;;11.10;;
4011;SDS011;2020;48.682;9.024;2022-12-04T05:22:36;18.70;;;11.87;;
4011;SDS011;2020;48.682;9.024;2022-12-04T05:25:02;21.87;;;11.10;;
4011;SDS011;2020;48.682;9.024;2022-12-04T05:27:28;21.20;;;11.77;;
4011;SDS011;2020;48.682;9.024;2022-12-04T05:29:54;22.83;;;12.10;;
4011;SDS011;2020;48.682;9.024;2022-12-04T05:32:22;21.93;;;11.50;;
4011;SDS011;2020;48.682;9.024;2022-12-04T05:34:49;23.77;;;11.40;;
4011;SDS011;2020;48.682;9.024;2022-12-04T05:37:15;21.40;;;11.80;;
4011;SDS011;2020;48.682;9.024;2022-12-04T05:39:41;18.70;;;12.10;;
4011;SDS011;2020;48.682;9.024;2022-12-04T05:42:06;19.30;;;11.70;;
4011;SDS011;2020;48.682;9.024;2022-12-04T05:44:31;18.27;;;12.13;;
4011;SDS011;2020;48.682;9.024;2022-12-04T05:46:56;19.90;;;12.23;;
4011;SDS011;2020;48.682;9.024;2022-12-04T05:49:22;16.27;;;10.97;;
4011;SDS011;2020;48.682;9.024;2022-12-04T05:51:50;18.00;;;11.90;;
4011;SDS011;2020;48.682;9.024;2022-12-04T05:54:16;24.90;;;10.97;;
4011;SDS011;2020;48.682;9.024;2022-12-04T05:56:42;28.80;;;12.57;;
4011;SDS011;2020;48.682;9.024;2022-12-04T05:59:08;17.67;;;10.80;;
4011;SDS011;2020;48.682;9.024;2022-12-04T06:01:33;18.40;;;11.80;;
4011;SDS011;2020;48.682;9.024;2022-12-04T06:03:58;21.13;;;12.03;;
4011;SDS011;2020;48.682;9.024;2022-12-04T06:06:24;18.33;;;12.43;;
4011;SDS011;2020;48.682;9.024;2022-12-04T06:08:50;15.53;;;11.10;;
4011;SDS011;2020;48.682;9.024;2022-12-04T06:11:22;23.23;;;12.07;;
4011;SDS011;2020;48.682;9.024;2022-12-04T06:13:49;21.10;;;12.00;;
4011;SDS011;2020;48.682;9.024;2022-12-04T06:16:15;19.63;;;11.10;;
4011;SDS011;2020;48.682;9.024;2022-12-04T06:18:56;23.37;;;11.43;;
4011;SDS011;2020;48.682;9.024;2022-12-04T06:21:23;21.53;;;11.70;;
4011;SDS011;2020;48.682;9.024;2022-12-04T06:23:50;22.93;;;12.00;;
4011;SDS011;2020;48.682;9.024;2022-12-04T06:26:17;25.97;;;11.13;;
4011;SDS011;2020;48.682;9.024;2022-12-04T06:28:42;16.33;;;10.73;;
4011;SDS011;2020;48.682;9.024;2022-12-04T06:31:09;19.73;;;11.80;;
4011;SDS011;2020;48.682;9.024;2022-12-04T06:33:36;19.63;;;12.73;;
4011;SDS011;2020;48.682;9.024;2022-12-04T06:36:06;23.57;;;11.67;;
4011;SDS011;2020;48.682;9.024;2022-12-04T06:38:36;20.83;;;11.37;;
4011;SDS011;2020;48.682;9.024;2022-12-04T06:41:06;21.57;;;10.47;;
4011;SDS011;2020;48.682;9.024;2022-12-04T06:43:32;21.20;;;13.00;;
4011;SDS011;2020;48.682;9.024;2022-12-04T06:46:01;23.10;;;13.40;;
4011;SDS011;2020;48.682;9.024;2022-12-04T06:48:28;20.97;;;10.47;;
4011;SDS011;2020;48.682;9.024;2022-12-04T06:51:01;23.10;;;12.60;;
4011;SDS011;2020;48.682;9.024;2022-12-04T06:53:29;17.77;;;12.07;;
4011;SDS011;2020;48.682;9.024;2022-12-04T06:55:58;17.70;;;11.53;;
4011;SDS011;2020;48.682;9.024;2022-12-04T06:58:25;21.00;;;12.90;;
4011;SDS011;2020;48.682;9.024;2022-12-04T07:00:51;19.93;;;12.80;;
4011;SDS011;2020;48.682;9.024;2022-12-04T07:03:17;16.90;;;10.60;;
4011;SDS011;2020;48.682;9.024;2022-12-04T07:05:43;17.83;;;10.83;;
4011;SDS011;2020;48.682;9.024;2022-12-04T07:08:08;15.57;;;10.50;;
4011;SDS011;2020;48.682;9.024;2022-12-04T07:10:34;19.97;;;12.17;;
4011;SDS011;2020;48.682;9.024;2022-12-04T07:13:00;17.20;;;10.80;;
4011;SDS011;2020;48.682;9.024;2022-12-04T07:15:25;17.90;;;10.93;;
4011;SDS011;2020;48.682;9.024;2022-12-04T07:17:51;15.90;;;10.80;;
4011;SDS011;2020;48.682;9.024;2022-12-04T07:20:16;19.40;;;10.93;;
4011;SDS011;2020;48.682;9.024;2022-12-04T07:22:41;15.80;;;10.90;;
4011;SDS011;2020;48.682;9.024;2022-12-04T07:25:07;26.30;;;12.07;;
4011;SDS011;2020;48.682;9.024;2022-12-04T07:27:32;23.10;;;12.50;;
4011;SDS011;2020;48.682;9.024;2022-12-04T07:29:57;21.90;;;13.30;;
4011;SDS011;2020;48.682;9.024;2022-12-04T07:32:23;23.07;;;12.37;;
4011;SDS011;2020;48.682;9.024;2022-12-04T07:34:48;26.07;;;13.80;;
4011;SDS011;2020;48.682;9.024;2022-12-04T07:37:13;28.13;;;13.07;;
4011;SDS011;2020;48.682;9.024;2022-12-04T07:39:38;19.83;;;11.77;;
4011;SDS011;2020;48.682;9.024;2022-12-04T07:42:04;28.13;;;13.57;;
4011;SDS011;2020;48.682;9.024;2022-12-04T07:44:30;16.47;;;10.87;;
4011;SDS011;2020;48.682;9.024;2022-12-04T07:46:55;24.53;;;12.20;;
4011;SDS011;2020;48.682;9.024;2022-12-04T07:49:21;19.50;;;12.40;;
4011;SDS011;2020;48.682;9.024;2022-12-04T07:51:46;23.17;;;12.43;;
4011;SDS011;2020;48.682;9.024;2022-12-04T07:54:11;23.40;;;12.10;;
4011;SDS011;2020;48.682;9.024;2022-12-04T07:56:37;25.20;;;12.90;;
4011;SDS011;2020;48.682;9.024;2022-12-04T07:59:02;19.43;;;11.53;;
4011;SDS011;2020;48.682;9.024;2022-12-04T08:01:27;26.47;;;13.23;;
4011;SDS011;2020;48.682;9.024;2022-12-04T08:03:54;19.23;;;10.87;;
4011;SDS011;2020;48.682;9.024;2022-12-04T08:06:22;20.77;;;11.73;;
4011;SDS011;2020;48.682;9.024;2022-12-04T08:08:48;17.80;;;12.20;;
4011;SDS011;2020;48.682;9.024;2022-12-04T08:11:15;19.87;;;12.43;;
4011;SDS011;2020;48.682;9.024;2022-12-04T08:13:42;25.40;;;13.00;;
4011;SDS011;2020;48.682;9.024;2022-12-04T08:16:08;25.57;;;13.90;;
4011;SDS011;2020;48.682;9.024;2022-12-04T08:18:35;23.67;;;13.37;;
4011;SDS011;2020;48.682;9.024;2022-12-04T08:23:33;27.93;;;14.73;;
4011;SDS011;2020;48.682;9.024;2022-12-04T08:25:59;25.67;;;14.00;;
4011;SDS011;2020;48.682;9.024;2022-12-04T08:28:25;25.80;;;14.40;;
4011;SDS011;2020;48.682;9.024;2022-12-04T08:30:51;21.43;;;11.80;;
4011;SDS011;2020;48.682;9.024;2022-12-04T08:33:16;22.87;;;12.83;;
4011;SDS011;2020;48.682;9.024;2022-12-04T08:35:41;22.07;;;13.47;;
4011;SDS011;2020;48.682;9.024;2022-12-04T08:38:07;27.83;;;14.03;;
4011;SDS011;2020;48.682;9.024;2022-12-04T08:40:32;23.60;;;13.70;;
4011;SDS011;2020;48.682;9.024;2022-12-04T08:42:57;21.50;;;12.40;;
4011;SDS011;2020;48.682;9.024;2022-12-04T08:45:22;24.90;;;13.57;;
4011;SDS011;2020;48.682;9.024;2022-12-04T08:47:48;19.20;;;12.93;;
4011;SDS011;2020;48.682;9.024;2022-12-04T08:50:13;19.40;;;11.90;;
4011;SDS011;2020;48.682;9.024;2022-12-04T08:52:39;20.07;;;11.93;;
4011;SDS011;2020;48.682;9.024;2022-12-04T08:55:04;24.50;;;14.33;;
4011;SDS011;2020;48.682;9.024;2022-12-04T08:57:30;22.87;;;12.93;;
4011;SDS011;2020;48.682;9.024;2022-12-04T08:59:55;20.80;;;12.20;;
4011;SDS011;2020;48.682;9.024;2022-12-04T09:02:20;22.93;;;13.33;;
4011;SDS011;2020;48.682;9.024;2022-12-04T09:04:46;21.63;;;12.37;;
4011;SDS011;2020;48.682;9.024;2022-12-04T09:07:11;20.10;;;12.87;;
4011;SDS011;2020;48.682;9.024;2022-12-04T09:09:36;24.17;;;14.03;;
4011;SDS011;2020;48.682;9.024;2022-12-04T09:12:02;20.67;;;15.07;;
4011;SDS011;2020;48.682;9.024;2022-12-04T09:14:27;21.40;;;11.67;;
4011;SDS011;2020;48.682;9.024;2022-12-04T09:16:52;21.00;;;13.73;;
4011;SDS011;2020;48.682;9.024;2022-12-04T09:19:18;20.03;;;10.43;;
4011;SDS011;2020;48.682;9.024;2022-12-04T09:21:44;17.33;;;11.23;;
4011;SDS011;2020;48.682;9.024;2022-12-04T09:24:09;23.73;;;13.43;;
4011;SDS011;2020;48.682;9.024;2022-12-04T09:26:34;22.97;;;11.83;;
4011;SDS011;2020;48.682;9.024;2022-12-04T09:29:00;17.87;;;11.00;;
4011;SDS011;2020;48.682;9.024;2022-12-04T09:31:27;23.73;;;13.40;;
4011;SDS011;2020;48.682;9.024;2022-12-04T09:33:53;24.90;;;11.90;;
4011;SDS011;2020;48.682;9.024;2022-12-04T09:36:19;23.03;;;11.53;;
4011;SDS011;2020;48.682;9.024;2022-12-04T09:38:45;25.20;;;13.87;;
4011;SDS011;2020;48.682;9.024;2022-12-04T09:46:37;22.43;;;13.20;;
4011;SDS011;2020;48.682;9.024;2022-12-04T09:51:59;19.20;;;11.43;;
4011;SDS011;2020;48.682;9.024;2022-12-04T09:54:32;21.50;;;11.33;;
4011;SDS011;2020;48.682;9.024;2022-12-04T09:57:09;21.03;;;13.03;;
4011;SDS011;2020;48.682;9.024;2022-12-04T09:59:39;23.50;;;12.43;;
4011;SDS011;2020;48.682;9.024;2022-12-04T10:04:50;16.87;;;11.30;;
4011;SDS011;2020;48.682;9.024;2022-12-04T10:07:17;19.97;;;12.60;;
4011;SDS011;2020;48.682;9.024;2022-12-04T10:15:40;20.93;;;11.27;;
4011;SDS011;2020;48.682;9.024;2022-12-04T10:21:28;23.37;;;10.83;;
4011;SDS011;2020;48.682;9.024;2022-12-04T10:26:40;21.97;;;12.70;;
4011;SDS011;2020;48.682;9.024;2022-12-04T10:29:15;22.70;;;11.43;;
4011;SDS011;2020;48.682;9.024;2022-12-04T10:31:48;18.67;;;11.83;;
4011;SDS011;2020;48.682;9.024;2022-12-04T10:34:25;19.00;;;11.90;;
4011;SDS011;2020;48.682;9.024;2022-12-04T10:36:54;23.87;;;12.40;;
4011;SDS011;2020;48.682;9.024;2022-12-04T10:42:04;19.93;;;12.30;;
4011;SDS011;2020;48.682;9.024;2022-12-04T10:44:30;21.47;;;12.60;;
4011;SDS011;2020;48.682;9.024;2022-12-04T10:46:58;22.97;;;12.33;;
4011;SDS011;2020;48.682;9.024;2022-12-04T10:49:25;21.87;;;12.90;;
4011;SDS011;2020;48.682;9.024;2022-12-04T10:51:52;24.80;;;14.67;;
4011;SDS011;2020;48.682;9.024;2022-12-04T10:56:56;25.90;;;12.63;;
4011;SDS011;2020;48.682;9.024;2022-12-04T10:59:23;23.43;;;12.83;;
4011;SDS011;2020;48.682;9.024;2022-12-04T11:01:50;20.37;;;12.53;;
4011;SDS011;2020;48.682;9.024;2022-12-04T11:04:24;22.43;;;12.87;;
4011;SDS011;2020;48.682;9.024;2022-12-04T11:07:04;23.97;;;12.40;;
4011;SDS011;2020;48.682;9.024;2022-12-04T11:10:03;23.03;;;14.10;;
4011;SDS011;2020;48.682;9.024;2022-12-04T11:13:00;19.50;;;12.27;;
4011;SDS011;2020;48.682;9.024;2022-12-04T11:15:28;17.23;;;11.50;;
4011;SDS011;2020;48.682;9.024;2022-12-04T11:17:54;18.03;;;12.77;;
4011;SDS011;2020;48.682;9.024;2022-12-04T11:20:30;24.93;;;14.00;;
4011;SDS011;2020;48.682;9.024;2022-12-04T11:22:56;23.27;;;13.90;;
4011;SDS011;2020;48.682;9.024;2022-12-04T11:25:29;17.33;;;12.33;;
4011;SDS011;2020;48.682;9.024;2022-12-04T11:27:58;18.27;;;12.33;;
4011;SDS011;2020;48.682;9.024;2022-12-04T11:30:33;25.83;;;14.97;;
4011;SDS011;2020;48.682;9.024;2022-12-04T11:33:01;17.83;;;11.07;;
4011;SDS011;2020;48.682;9.024;2022-12-04T11:35:28;19.20;;;11.43;;
4011;SDS011;2020;48.682;9.024;2022-12-04T11:38:01;23.00;;;13.23;;
4011;SDS011;2020;48.682;9.024;2022-12-04T11:40:31;19.23;;;12.53;;
4011;SDS011;2020;48.682;9.024;2022-12-04T11:42:59;23.87;;;13.47;;
4011;SDS011;2020;48.682;9.024;2022-12-04T11:45:27;27.60;;;13.73;;
4011;SDS011;2020;48.682;9.024;2022-12-04T11:47:57;23.30;;;13.13;;
4011;SDS011;2020;48.682;9.024;2022-12-04T11:50:36;24.20;;;13.90;;
4011;SDS011;2020;48.682;9.024;2022-12-04T11:53:13;20.30;;;14.00;;
4011;SDS011;2020;48.682;9.024;2022-12-04T12:01:25;23.93;;;14.97;;
4011;SDS011;2020;48.682;9.024;2022-12-04T12:10:05;24.27;;;15.30;;
4011;SDS011;2020;48.682;9.024;2022-12-04T12:12:47;30.40;;;14.07;;
4011;SDS011;2020;48.682;9.024;2022-12-04T12:15:35;21.70;;;13.03;;
4011;SDS011;2020;48.682;9.024;2022-12-04T12:21:03;21.77;;;13.37;;
4011;SDS011;2020;48.682;9.024;2022-12-04T12:23:41;19.00;;;12.50;;
4011;SDS011;2020;48.682;9.024;2022-12-04T12:26:49;20.20;;;13.33;;
4011;SDS011;2020;48.682;9.024;2022-12-04T12:29:46;22.97;;;15.03;;
4011;SDS011;2020;48.682;9.024;2022-12-04T12:38:05;27.13;;;14.67;;
4011;SDS011;2020;48.682;9.024;2022-12-04T12:40:37;28.80;;;16.70;;
4011;SDS011;2020;48.682;9.024;2022-12-04T12:43:10;29.13;;;16.87;;
4011;SDS011;2020;48.682;9.024;2022-12-04T12:46:23;25.13;;;15.20;;
4011;SDS011;2020;48.682;9.024;2022-12-04T12:53:57;25.93;;;15.00;;
4011;SDS011;2020;48.682;9.024;2022-12-04T12:56:30;30.03;;;17.30;;
4011;SDS011;2020;48.682;9.024;2022-12-04T12:59:00;31.60;;;16.13;;
4011;SDS011;2020;48.682;9.024;2022-12-04T13:01:41;23.93;;;14.90;;
4011;SDS011;2020;48.682;9.024;2022-12-04T13:07:09;32.40;;;17.70;;
4011;SDS011;2020;48.682;9.024;2022-12-04T13:09:41;32.33;;;18.47;;
4011;SDS011;2020;48.682;9.024;2022-12-04T13:12:19;28.20;;;16.13;;
4011;SDS011;2020;48.682;9.024;2022-12-04T13:14:46;25.00;;;14.93;;
4011;SDS011;2020;48.682;9.024;2022-12-04T13:19:41;25.20;;;15.40;;
4011;SDS011;2020;48.682;9.024;2022-12-04T13:27:51;27.23;;;16.97;;
4011;SDS011;2020;48.682;9.024;2022-12-04T13:38:56;32.13;;;17.07;;
4011;SDS011;2020;48.682;9.024;2022-12-04T13:41:36;29.63;;;16.40;;
4011;SDS011;2020;48.682;9.024;2022-12-04T13:44:10;27.93;;;17.50;;
4011;SDS011;2020;48.682;9.024;2022-12-04T13:49:26;26.40;;;16.60;;
4011;SDS011;2020;48.682;9.024;2022-12-04T13:51:57;33.97;;;17.03;;
4011;SDS011;2020;48.682;9.024;2022-12-04T13:54:32;35.40;;;17.30;;
4011;SDS011;2020;48.682;9.024;2022-12-04T13:59:46;33.13;;;18.50;;
4011;SDS011;2020;48.682;9.024;2022-12-04T14:02:23;30.40;;;18.77;;
4011;SDS011;2020;48.682;9.024;2022-12-04T14:07:57;35.13;;;19.17;;
4011;SDS011;2020;48.682;9.024;2022-12-04T14:10:27;33.90;;;18.53;;
4011;SDS011;2020;48.682;9.024;2022-12-04T14:12:59;37.23;;;19.33;;
4011;SDS011;2020;48.682;9.024;2022-12-04T14:15:29;35.50;;;17.57;;
4011;SDS011;2020;48.682;9.024;2022-12-04T14:18:04;32.47;;;17.63;;
4011;SDS011;2020;48.682;9.024;2022-12-04T14:20:41;35.40;;;17.20;;
4011;SDS011;2020;48.682;9.024;2022-12-04T14:23:53;29.73;;;15.73;;
4011;SDS011;2020;48.682;9.024;2022-12-04T14:26:04;22.43;;;13.30;;
4011;SDS011;2020;48.682;9.024;2022-12-04T14:28:43;26.47;;;15.40;;
4011;SDS011;2020;48.682;9.024;2022-12-04T14:31:13;25.53;;;14.77;;
4011;SDS011;2020;48.682;9.024;2022-12-04T14:36:35;27.07;;;15.93;;
4011;SDS011;2020;48.682;9.024;2022-12-04T14:39:09;27.17;;;16.23;;
4011;SDS011;2020;48.682;9.024;2022-12-04T14:41:41;27.27;;;15.53;;
4011;SDS011;2020;48.682;9.024;2022-12-04T14:44:13;26.13;;;13.97;;
4011;SDS011;2020;48.682;9.024;2022-12-04T14:46:48;21.40;;;12.93;;
4011;SDS011;2020;48.682;9.024;2022-12-04T14:57:01;27.30;;;13.70;;
4011;SDS011;2020;48.682;9.024;2022-12-04T14:59:40;25.30;;;14.70;;
4011;SDS011;2020;48.682;9.024;2022-12-04T15:02:12;35.73;;;18.13;;
4011;SDS011;2020;48.682;9.024;2022-12-04T15:04:41;31.43;;;16.43;;
4011;SDS011;2020;48.682;9.024;2022-12-04T15:07:19;48.10;;;26.17;;
4011;SDS011;2020;48.682;9.024;2022-12-04T15:09:57;44.57;;;26.80;;
4011;SDS011;2020;48.682;9.024;2022-12-04T15:15:17;32.97;;;16.27;;
4011;SDS011;2020;48.682;9.024;2022-12-04T15:17:54;32.07;;;16.43;;
4011;SDS011;2020;48.682;9.024;2022-12-04T15:20:20;38.77;;;20.60;;
4011;SDS011;2020;48.682;9.024;2022-12-04T15:22:46;31.97;;;17.93;;
4011;SDS011;2020;48.682;9.024;2022-12-04T15:25:25;27.73;;;14.73;;
4011;SDS011;2020;48.682;9.024;2022-12-04T15:27:59;23.97;;;13.70;;
4011;SDS011;2020;48.682;9.024;2022-12-04T15:30:29;34.50;;;15.83;;
4011;SDS011;2020;48.682;9.024;2022-12-04T15:32:58;25.50;;;14.60;;
4011;SDS011;2020;48.682;9.024;2022-12-04T15:35:24;29.20;;;14.90;;
4011;SDS011;2020;48.682;9.024;2022-12-04T15:37:53;22.57;;;14.47;;
4011;SDS011;2020;48.682;9.024;2022-12-04T15:40:26;23.30;;;15.00;;
4011;SDS011;2020;48.682;9.024;2022-12-04T15:42:53;29.23;;;15.20;;
4011;SDS011;2020;48.682;9.024;2022-12-04T15:45:29;28.70;;;14.90;;
4011;SDS011;2020;48.682;9.024;2022-12-04T15:47:56;23.97;;;13.30;;
4011;SDS011;2020;48.682;9.024;2022-12-04T15:50:23;25.17;;;13.70;;
4011;SDS011;2020;48.682;9.024;2022-12-04T15:55:21;26.27;;;14.33;;
4011;SDS011;2020;48.682;9.024;2022-12-04T15:57:54;26.23;;;13.77;;
4011;SDS011;2020;48.682;9.024;2022-12-04T16:00:25;25.10;;;13.10;;
4011;SDS011;2020;48.682;9.024;2022-12-04T16:02:54;24.70;;;14.20;;
4011;SDS011;2020;48.682;9.024;2022-12-04T16:07:56;22.77;;;13.10;;
4011;SDS011;2020;48.682;9.024;2022-12-04T16:10:25;20.57;;;12.20;;
4011;SDS011;2020;48.682;9.024;2022-12-04T16:12:53;22.17;;;13.47;;
4011;SDS011;2020;48.682;9.024;2022-12-04T16:15:21;25.53;;;14.57;;
4011;SDS011;2020;48.682;9.024;2022-12-04T16:17:47;30.33;;;13.63;;
4011;SDS011;2020;48.682;9.024;2022-12-04T16:20:13;22.00;;;13.93;;
4011;SDS011;2020;48.682;9.024;2022-12-04T16:22:39;27.50;;;16.00;;
4011;SDS011;2020;48.682;9.024;2022-12-04T16:25:05;28.27;;;16.43;;
4011;SDS011;2020;48.682;9.024;2022-12-04T16:27:31;25.17;;;15.37;;
4011;SDS011;2020;48.682;9.024;2022-12-04T16:29:57;21.00;;;12.47;;
4011;SDS011;2020;48.682;9.024;2022-12-04T16:32:24;25.50;;;13.13;;
4011;SDS011;2020;48.682;9.024;2022-12-04T16:34:54;25.33;;;14.77;;
4011;SDS011;2020;48.682;9.024;2022-12-04T16:37:20;22.80;;;14.50;;
4011;SDS011;2020;48.682;9.024;2022-12-04T16:39:46;27.50;;;14.80;;
4011;SDS011;2020;48.682;9.024;2022-12-04T16:42:16;29.50;;;14.20;;
4011;SDS011;2020;48.682;9.024;2022-12-04T16:44:49;25.10;;;14.67;;
4011;SDS011;2020;48.682;9.024;2022-12-04T16:47:15;25.10;;;15.60;;
4011;SDS011;2020;48.682;9.024;2022-12-04T16:49:42;24.73;;;15.47;;
4011;SDS011;2020;48.682;9.024;2022-12-04T16:52:08;34.43;;;16.20;;
4011;SDS011;2020;48.682;9.024;2022-12-04T16:54:35;34.17;;;15.83;;
4011;SDS011;2020;48.682;9.024;2022-12-04T16:57:00;35.97;;;18.87;;
4011;SDS011;2020;48.682;9.024;2022-12-04T16:59:26;33.57;;;16.63;;
4011;SDS011;2020;48.682;9.024;2022-12-04T17:01:51;34.00;;;16.03;;
4011;SDS011;2020;48.682;9.024;2022-12-04T17:04:17;29.77;;;16.67;;
4011;SDS011;2020;48.682;9.024;2022-12-04T17:06:42;36.50;;;16.40;;
4011;SDS011;2020;48.682;9.024;2022-12-04T17:09:08;28.63;;;14.70;;
4011;SDS011;2020;48.682;9.024;2022-12-04T17:11:34;33.57;;;15.47;;
4011;SDS011;2020;48.682;9.024;2022-12-04T17:14:00;32.70;;;14.90;;
4011;SDS011;2020;48.682;9.024;2022-12-04T17:16:30;26.30;;;15.37;;
4011;SDS011;2020;48.682;9.024;2022-12-04T17:18:56;34.97;;;16.73;;